Hauptseite
METAR-TAF:

METAR-TAF

Flughäfen :

Flughafen Wolgograd

Wolgograd, Russland

Breite: 48-47N, Länge: 044-22E, Höhe: 145 m

Beobachtung

Neuester Wetterbericht von vor 24 Minuten, um 08:30 UTC
Wind 6 kt aus Ost/Nordost, variierte zwischen Nord und Ost/Südost
Temperatur 32°C
Luftfeuchtigkeit 26%
Luftdruck 1014 hPa
Sichtweite 10 km oder mehr
keine Wolken unter 1500 m und keine Kumulonimbus oder Gewitterwolken

METAR: URWW 170830Z 07003MPS 010V110 CAVOK 32/10 Q1014 R06/010070 NOSIG

Zeit: 11:54 (08:54 UTC)

Prognose

Neuester Wetterbericht von vor 58 Minuten, um 07:56 UTC
Gültige Prognose vom 17 um 09 UTC bis 17 um 18 UTC
Wind 6 kt aus Ost, Böen bis zu 16 kt
Sichtweite 10 km oder mehr
Aufgelockert bewölkt in der Höhe von 4000 ft
Zeitweise
vom 17 um 09 UTC bis 17 um 18 UTC
Wind 10 kt aus Ost/Südost, Böen bis zu 21 kt

TAF: URWW 170756Z 1709/1718 08003G08MPS 9999 SCT040 TEMPO 1709/1718 12005G11MPS

Wetterbeobachtungen und Prognosen von mehr als 4000 Flughäfen (METAR und TAF Bericht).

Die verfügbaren Stationen werden durch gelbe und rote Markierungen auf der Karte dargestellt.

Führen Sie die Maus auf sie, um den Namen der Station zu sehen.

Darauf klicken, um die Beobachtung von Wetterbeobachtungen und Prognosen zu sehen.

Um die Karte zu ändern : klicken Sie auf den grünen Tasten mit einem schwarzen Kreuz Zum Vergrößern, auf den grünen Button mit einem Gedankenstrich zu verkleinern, oder auf die grünen Pfeile für benachbarte Karten.


METAR-TAF: